createdAt,value
2022-09-17T00:00:09.088Z,76.94238281
2022-09-17T00:01:09.998Z,77.06445313
2022-09-17T00:02:03.365Z,77.1328125
2022-09-17T00:03:04.285Z,76.52148438
2022-09-17T00:03:55.572Z,76.60351563
2022-09-17T00:04:56.725Z,76.45703125
2022-09-17T00:05:48.141Z,77.05371094
2022-09-17T00:06:48.833Z,77.30957031
2022-09-17T00:07:42.049Z,77.265625
2022-09-17T00:09:33.946Z,76.73730469
2022-09-17T00:10:39.405Z,76.88378906
2022-09-17T00:11:34.536Z,77.06933594
2022-09-17T00:12:38.596Z,76.7578125
2022-09-17T00:14:31.166Z,77.17773438
2022-09-17T00:15:26.863Z,76.83691406
2022-09-17T00:16:25.776Z,76.96875
2022-09-17T00:17:24.146Z,76.86230469
2022-09-17T00:19:18.389Z,76.89648438
2022-09-17T00:21:03.087Z,77.01367188
2022-09-17T00:21:42.515Z,76.81933594
2022-09-17T00:22:45.634Z,76.51074219
2022-09-17T00:23:46.805Z,76.44238281
2022-09-17T00:24:45.307Z,76.50292969
2022-09-17T00:25:40.570Z,77.02832031
2022-09-17T00:26:38.582Z,77.22851563
2022-09-17T00:27:39.469Z,77.09863281
2022-09-17T00:29:33.107Z,77.29003906
2022-09-17T00:30:31.069Z,77.60058594
2022-09-17T00:31:29.562Z,77.48242188
2022-09-17T00:32:24.985Z,77.80859375
2022-09-17T00:33:29.850Z,78
2022-09-17T00:34:21.646Z,78.13183594
2022-09-17T00:35:23.589Z,77.75878906
2022-09-17T00:36:16.328Z,77.90527344
2022-09-17T00:37:18.893Z,78.13769531
2022-09-17T00:38:12.223Z,77.7109375
2022-09-17T00:40:09.243Z,78.00292969
2022-09-17T00:41:11.832Z,77.87988281
2022-09-17T00:42:08.773Z,77.8125
2022-09-17T00:43:10.827Z,77.61035156
2022-09-17T00:44:06.898Z,77.81054688
2022-09-17T00:45:09.058Z,77.67285156
2022-09-17T00:46:03.207Z,77.46972656
2022-09-17T00:47:05.604Z,77.70605469
2022-09-17T00:48:51.452Z,77.60839844
2022-09-17T00:49:31.432Z,77.56347656
2022-09-17T00:50:35.758Z,76.89257813
2022-09-17T00:51:33.271Z,77.22558594
2022-09-17T00:52:32.717Z,77.20800781
2022-09-17T00:54:28.894Z,77.6484375
2022-09-17T00:55:29.315Z,77.75585938
2022-09-17T00:56:25.586Z,77.86328125
2022-09-17T00:57:26.455Z,77.69140625
2022-09-17T00:59:23.601Z,78.00292969
2022-09-17T01:00:18.765Z,78.40429688
2022-09-17T01:01:20.533Z,78.34863281
2022-09-17T01:02:14.476Z,78.32421875
2022-09-17T01:03:20.967Z,78.27636719
2022-09-17T01:04:19.936Z,78.59082031
2022-09-17T01:05:22.386Z,78.31640625
2022-09-17T01:06:17.483Z,78.30078125
2022-09-17T01:07:15.350Z,78.66796875
2022-09-17T01:08:17.725Z,78.42382813
2022-09-17T01:10:11.640Z,78.8203125
2022-09-17T01:11:03.376Z,78.59765625
2022-09-17T01:12:04.123Z,78.52636719
2022-09-17T01:13:04.593Z,78.29882813
2022-09-17T01:15:01.986Z,78.37597656
2022-09-17T01:15:54.683Z,78.71289063
2022-09-17T01:16:53.738Z,78.72460938
2022-09-17T01:17:49.049Z,78.76757813
2022-09-17T01:19:44.204Z,78.7109375
2022-09-17T01:20:47.206Z,78.54394531
2022-09-17T01:21:42.447Z,78.29589844
2022-09-17T01:22:41.581Z,78.48535156
2022-09-17T01:24:38.288Z,78.36328125
2022-09-17T01:25:42.342Z,78.52832031
2022-09-17T01:26:34.188Z,78.359375
2022-09-17T01:27:35.773Z,78.30371094
2022-09-17T01:29:32.019Z,78.47265625
2022-09-17T01:30:26.469Z,78.29589844
2022-09-17T01:31:54.863Z,78.25195313
2022-09-17T01:32:36.197Z,78.13378906
2022-09-17T01:34:37.618Z,77.96484375
2022-09-17T01:35:37.907Z,77.94042969
2022-09-17T01:36:33.267Z,77.83691406
2022-09-17T01:37:31.771Z,77.98535156
2022-09-17T01:39:28.621Z,77.9921875
2022-09-17T01:40:31.853Z,77.88183594
2022-09-17T01:41:25.626Z,77.71777344
2022-09-17T01:42:26.786Z,78.12207031
2022-09-17T01:43:28.679Z,78.20117188
2022-09-17T01:44:35.026Z,78.34375
2022-09-17T01:45:35.844Z,78.6875
2022-09-17T01:46:37.267Z,78.39355469
2022-09-17T01:47:32.528Z,78.26464844
2022-09-17T01:49:37.956Z,78.35058594
2022-09-17T01:50:33.449Z,78.6875
2022-09-17T01:51:36.187Z,78.60839844
2022-09-17T01:52:33.716Z,78.60839844
2022-09-17T01:54:32.620Z,78.56640625
2022-09-17T01:55:35.967Z,78.84375
2022-09-17T01:56:28.984Z,78.78808594
2022-09-17T01:57:28.741Z,78.72265625
2022-09-17T01:59:36.200Z,78.88867188
2022-09-17T02:00:28.912Z,79.15722656
2022-09-17T02:01:31.336Z,79.30078125
2022-09-17T02:02:27.791Z,78.97851563
2022-09-17T02:03:28.244Z,79.04589844
2022-09-17T02:04:30.262Z,79.00097656
2022-09-17T02:05:29.122Z,79.41210938
2022-09-17T02:06:32.880Z,79.57910156
2022-09-17T02:07:26.287Z,79.50292969
2022-09-17T02:09:32.214Z,79.38476563
2022-09-17T02:10:38.022Z,79.46191406
2022-09-17T02:11:32.665Z,79.16015625
2022-09-17T02:12:37.313Z,79.05957031
2022-09-17T02:14:24.346Z,78.85253906
2022-09-17T02:15:10.673Z,78.84765625
2022-09-17T02:16:09.966Z,78.60253906
2022-09-17T02:17:16.547Z,78.53417969
2022-09-17T02:18:19.699Z,78.67773438
2022-09-17T02:20:23.343Z,79.02050781
2022-09-17T02:21:19.916Z,79.04003906
2022-09-17T02:22:20.926Z,78.88085938
2022-09-17T02:23:17.298Z,78.90527344
2022-09-17T02:25:16.498Z,79.27441406
2022-09-17T02:26:18.973Z,79.11425781
2022-09-17T02:27:21.522Z,79.00976563
2022-09-17T02:28:25.721Z,79.27539063
2022-09-17T02:29:24.685Z,79.18554688
2022-09-17T02:30:26.045Z,78.92382813
2022-09-17T02:31:24.292Z,79.20214844
2022-09-17T02:32:31.552Z,79.37988281
2022-09-17T02:34:31.029Z,79.015625
2022-09-17T02:35:30.227Z,78.83105469
2022-09-17T02:36:33.916Z,78.9453125
2022-09-17T02:37:29.198Z,78.58398438
2022-09-17T02:39:28.648Z,78.80371094
2022-09-17T02:40:30.856Z,78.6875
2022-09-17T02:41:27.879Z,78.90039063
2022-09-17T02:42:35.187Z,78.74023438
2022-09-17T02:44:32.661Z,78.94238281
2022-09-17T02:45:33.036Z,79.15039063
2022-09-17T02:46:32.260Z,79
2022-09-17T02:47:38.112Z,78.81054688
2022-09-17T02:49:33.240Z,78.9609375
2022-09-17T02:51:03.368Z,78.68066406
2022-09-17T02:51:44.795Z,78.55371094
2022-09-17T02:52:42.999Z,78.36914063
2022-09-17T02:53:41.126Z,78.53027344
2022-09-17T02:54:41.721Z,78.30371094
2022-09-17T02:55:39.798Z,78.54785156
2022-09-17T02:56:39.764Z,78.26171875
2022-09-17T02:57:34.966Z,78.47363281
2022-09-17T02:58:42.038Z,78.53125
2022-09-17T02:59:37.371Z,78.57324219
2022-09-17T03:00:37.726Z,78.50097656
2022-09-17T03:01:32.228Z,78.43359375
2022-09-17T03:02:32.101Z,78.10742188
2022-09-17T03:04:38.208Z,78.38867188
2022-09-17T03:05:32.471Z,78.3515625
2022-09-17T03:06:36.359Z,78.34082031
2022-09-17T03:07:32.081Z,78.125
2022-09-17T03:09:35.623Z,77.94726563
2022-09-17T03:10:34.178Z,78.13964844
2022-09-17T03:11:28.899Z,77.80175781
2022-09-17T03:12:32.261Z,77.91015625
2022-09-17T03:14:27.566Z,78.09863281
2022-09-17T03:15:27.934Z,78.15234375
2022-09-17T03:16:23.136Z,78.44335938
2022-09-17T03:17:26.115Z,78.55175781
2022-09-17T03:18:18.745Z,78.40136719
2022-09-17T03:20:19.391Z,78.37597656
2022-09-17T03:21:21.561Z,78.62304688
2022-09-17T03:22:17.065Z,78.47558594
2022-09-17T03:23:18.312Z,78.3515625
2022-09-17T03:25:21.095Z,78.56152344
2022-09-17T03:26:13.382Z,78.31835938
2022-09-17T03:27:13.154Z,78.27148438
2022-09-17T03:28:08.185Z,78.30859375
2022-09-17T03:29:09.672Z,78.54589844
2022-09-17T03:30:04.191Z,78.46582031
2022-09-17T03:31:04.480Z,78.46191406
2022-09-17T03:31:58.946Z,78.79882813
2022-09-17T03:32:58.517Z,78.31445313
2022-09-17T03:34:53.748Z,78.72363281
2022-09-17T03:36:01.388Z,78.61035156
2022-09-17T03:37:47.274Z,78.24609375
2022-09-17T03:38:28.248Z,78.23632813
2022-09-17T03:39:25.014Z,77.92773438
2022-09-17T03:40:24.279Z,78.12695313
2022-09-17T03:41:27.356Z,78.14453125
2022-09-17T03:42:23.471Z,78.09667969
2022-09-17T03:43:24.835Z,78.25097656
2022-09-17T03:45:24.456Z,78.4609375
2022-09-17T03:46:24.523Z,78.18847656
2022-09-17T03:47:19.988Z,78.37890625
2022-09-17T03:48:19.701Z,78.07421875
2022-09-17T03:49:15.951Z,78.09863281
2022-09-17T03:50:19.387Z,77.96289063
2022-09-17T03:51:19.468Z,78.64550781
2022-09-17T03:52:16.596Z,78.52929688
2022-09-17T03:53:19.923Z,78.48828125
2022-09-17T03:55:17.695Z,78.484375
2022-09-17T03:56:16.753Z,78.50683594
2022-09-17T03:57:28.317Z,78.44042969
2022-09-17T03:58:23.986Z,78.28613281
2022-09-17T03:59:23.717Z,78.34375
2022-09-17T04:00:18.931Z,78.33105469
2022-09-17T04:01:21.254Z,78.72363281
2022-09-17T04:02:19.374Z,78.49902344
2022-09-17T04:03:21.505Z,78.22949219
2022-09-17T04:05:17.131Z,77.98730469
2022-09-17T04:06:10.414Z,77.62597656
2022-09-17T04:07:13.838Z,77.79785156
2022-09-17T04:08:05.917Z,77.46289063
2022-09-17T04:10:00.172Z,78.02734375
2022-09-17T04:11:04.207Z,77.84765625
2022-09-17T04:11:56.018Z,77.81445313
2022-09-17T04:12:54.194Z,77.47851563
2022-09-17T04:13:53.072Z,77.62792969
2022-09-17T04:14:52.123Z,77.578125
2022-09-17T04:16:15.026Z,77.81054688
2022-09-17T04:17:01.447Z,77.57226563
2022-09-17T04:17:59.749Z,77.2734375
2022-09-17T04:19:01.151Z,77.0625
2022-09-17T04:19:57.710Z,76.9921875
2022-09-17T04:21:08.103Z,77.10351563
2022-09-17T04:22:06.030Z,76.78320313
2022-09-17T04:23:07.329Z,76.86035156
2022-09-17T04:24:06.564Z,76.93945313
2022-09-17T04:25:02.244Z,77.00195313
2022-09-17T04:26:03.206Z,77.15917969
2022-09-17T04:27:00.036Z,77.24902344
2022-09-17T04:28:01.825Z,77.33789063
2022-09-17T04:29:01.038Z,77.42871094
2022-09-17T04:30:02.689Z,77.37890625
2022-09-17T04:30:59.088Z,77.58984375
2022-09-17T04:32:02.066Z,77.57519531
2022-09-17T04:33:01.910Z,77.37011719
2022-09-17T04:34:01.129Z,77.29394531
2022-09-17T04:35:04.061Z,77.47363281
2022-09-17T04:36:09.668Z,77.77734375
2022-09-17T04:37:13.350Z,77.9765625
2022-09-17T04:38:17.641Z,77.6953125
2022-09-17T04:39:11.955Z,77.64550781
2022-09-17T04:40:18.859Z,77.66796875
2022-09-17T04:41:14.400Z,77.62207031
2022-09-17T04:42:16.615Z,77.7578125
2022-09-17T04:43:11.081Z,77.78222656
2022-09-17T04:45:06.614Z,77.95410156
2022-09-17T04:46:11.855Z,77.63964844
2022-09-17T04:47:08.286Z,77.94238281
2022-09-17T04:48:10.123Z,77.69238281
2022-09-17T04:50:10.812Z,78.03027344
2022-09-17T04:51:55.810Z,77.5859375
2022-09-17T04:52:35.254Z,77.24707031
2022-09-17T04:54:32.289Z,76.95605469
2022-09-17T04:55:33.694Z,77.25488281
2022-09-17T04:56:31.268Z,77.18457031
2022-09-17T04:57:25.614Z,77.15136719
2022-09-17T04:58:26.792Z,77.38378906
2022-09-17T04:59:22.103Z,77.33886719
2022-09-17T05:00:24.497Z,77.03808594
2022-09-17T05:01:20.174Z,76.94042969
2022-09-17T05:02:23.840Z,77.12988281
2022-09-17T05:04:27.550Z,77.18164063
2022-09-17T05:05:21.731Z,77.26953125
2022-09-17T05:06:22.442Z,77.44628906
2022-09-17T05:07:21.461Z,77.37597656
2022-09-17T05:08:21.923Z,77.29882813
2022-09-17T05:10:16.973Z,77.04980469
2022-09-17T05:11:14.900Z,76.45410156
2022-09-17T05:12:17.219Z,76.51074219
2022-09-17T05:13:11.291Z,76.72265625
2022-09-17T05:15:09.556Z,76.61816406
2022-09-17T05:16:10.182Z,76.51171875
2022-09-17T05:17:05.521Z,76.50097656
2022-09-17T05:18:04.491Z,76.44335938
2022-09-17T05:20:11.548Z,76.73339844
2022-09-17T05:21:13.780Z,76.765625
2022-09-17T05:22:08.391Z,76.77734375
2022-09-17T05:23:11.342Z,76.64257813
2022-09-17T05:24:07.365Z,76.61035156
2022-09-17T05:25:04.119Z,76.53125
2022-09-17T05:26:06.939Z,76.68847656
2022-09-17T05:26:58.899Z,76.19238281
2022-09-17T05:28:09.332Z,76.49804688
2022-09-17T05:30:08.648Z,77.00390625
2022-09-17T05:31:06.974Z,76.93652344
2022-09-17T05:32:05.402Z,76.89453125
2022-09-17T05:32:58.223Z,76.72558594
2022-09-17T05:34:02.313Z,76.96777344
2022-09-17T05:34:57.025Z,76.88769531
2022-09-17T05:36:00.740Z,77
2022-09-17T05:36:53.332Z,77.20214844
2022-09-17T05:37:56.057Z,77.02246094
2022-09-17T05:38:52.337Z,77.0703125
2022-09-17T05:40:40.319Z,76.90039063
2022-09-17T05:41:21.603Z,76.63183594
2022-09-17T05:42:22.668Z,76.68164063
2022-09-17T05:43:19.172Z,76.63867188
2022-09-17T05:45:24.098Z,77.06738281
2022-09-17T05:46:22.917Z,77.13964844
2022-09-17T05:47:25.001Z,76.82324219
2022-09-17T05:48:18.124Z,77.13671875
2022-09-17T05:50:12.117Z,77.02441406
2022-09-17T05:51:11.676Z,76.86230469
2022-09-17T05:52:07.020Z,76.671875
2022-09-17T05:53:10.507Z,76.95214844
2022-09-17T05:55:05.190Z,76.82617188
2022-09-17T05:56:01.007Z,77.19628906
2022-09-17T05:57:03.500Z,76.81640625
2022-09-17T05:57:28.493Z,76.546875
2022-09-17T05:59:26.515Z,76.58203125
2022-09-17T06:01:38.591Z,76.55957031
2022-09-17T06:02:19.064Z,76.36035156
2022-09-17T06:03:20.975Z,76.47949219
2022-09-17T06:05:21.300Z,76.75878906
2022-09-17T06:06:20.336Z,76.98242188
2022-09-17T06:07:15.164Z,77.23925781
2022-09-17T06:08:15.145Z,77.14746094
2022-09-17T06:10:10.835Z,77.23242188
2022-09-17T06:11:07.313Z,77.25683594
2022-09-17T06:12:09.626Z,77.38671875
2022-09-17T06:13:02.266Z,76.99707031
2022-09-17T06:15:00.997Z,77.09765625
2022-09-17T06:15:57.230Z,77.13183594
2022-09-17T06:17:01.810Z,76.84765625
2022-09-17T06:17:55.435Z,77.27636719
2022-09-17T06:18:59.057Z,77.01953125
2022-09-17T06:19:52.496Z,76.55859375
2022-09-17T06:20:56.123Z,76.93847656
2022-09-17T06:21:52.524Z,76.61132813
2022-09-17T06:22:52.456Z,76.82519531
2022-09-17T06:23:48.787Z,77.09667969
2022-09-17T06:24:50.959Z,76.74902344
2022-09-17T06:25:51.329Z,76.91503906
2022-09-17T06:27:34.311Z,76.86523438
2022-09-17T06:28:15.401Z,76.90527344
2022-09-17T06:30:14.866Z,76.58691406
2022-09-17T06:31:10.427Z,76.4375
2022-09-17T06:32:14.074Z,76.6484375
2022-09-17T06:33:08.773Z,76.58886719
2022-09-17T06:35:08.176Z,76.5
2022-09-17T06:36:13.149Z,76.43164063
2022-09-17T06:36:14.362Z,76.43164063
2022-09-17T06:37:05.367Z,76.37792969
2022-09-17T06:38:04.593Z,76.09863281
2022-09-17T06:40:01.132Z,76.03710938
2022-09-17T06:41:00.846Z,76.24609375
2022-09-17T06:41:57.111Z,76.36816406
2022-09-17T06:42:59.032Z,75.86914063
2022-09-17T06:43:53.134Z,76.23339844
2022-09-17T06:44:59.346Z,76.10839844
2022-09-17T06:45:52.738Z,76.44726563
2022-09-17T06:46:49.126Z,76.64941406
2022-09-17T06:47:48.850Z,76.12304688
2022-09-17T06:49:44.540Z,76.59375
2022-09-17T06:50:43.006Z,76.85058594
2022-09-17T06:51:39.963Z,76.65722656
2022-09-17T06:52:42.072Z,76.74316406
2022-09-17T06:54:38.042Z,76.55761719
2022-09-17T06:55:30.898Z,76.46777344
2022-09-17T06:56:33.115Z,76.57226563
2022-09-17T06:57:26.104Z,76.77539063
2022-09-17T06:58:28.583Z,77.00097656
2022-09-17T06:59:21.713Z,76.69140625
2022-09-17T07:00:24.073Z,76.6015625
2022-09-17T07:01:22.120Z,76.56738281
2022-09-17T07:02:19.590Z,76.62695313
2022-09-17T07:03:12.422Z,76.40625
2022-09-17T07:04:36.238Z,76.31054688
2022-09-17T07:05:16.930Z,76.26953125
2022-09-17T07:06:15.097Z,76.33398438
2022-09-17T07:07:15.567Z,76.67285156
2022-09-17T07:08:13.322Z,76.24414063
2022-09-17T07:10:09.743Z,76.83203125
2022-09-17T07:11:09.997Z,76.74316406
2022-09-17T07:12:05.369Z,76.58496094
2022-09-17T07:13:06.243Z,76.6171875
2022-09-17T07:15:06.369Z,76.21777344
2022-09-17T07:15:59.814Z,76.078125
2022-09-17T07:16:59.919Z,76.21972656
2022-09-17T07:17:55.594Z,75.96972656
2022-09-17T07:19:51.621Z,75.86230469
2022-09-17T07:20:53.532Z,76.29003906
2022-09-17T07:21:49.875Z,76.42675781
2022-09-17T07:22:50.284Z,76.59375
2022-09-17T07:24:49.729Z,76.95800781
2022-09-17T07:25:43.024Z,76.27539063
2022-09-17T07:26:48.440Z,76.34765625
2022-09-17T07:27:41.686Z,76.59960938
2022-09-17T07:29:37.901Z,75.96484375
2022-09-17T07:30:38.364Z,75.84082031
2022-09-17T07:31:34.249Z,76.11523438
2022-09-17T07:32:34.455Z,76.03808594
2022-09-17T07:34:29.293Z,76.02929688
2022-09-17T07:35:32.750Z,76.2109375
2022-09-17T07:36:27.012Z,76.421875
2022-09-17T07:37:29.787Z,76.01660156
2022-09-17T07:38:23.907Z,76.15625
2022-09-17T07:39:22.035Z,76.01269531
2022-09-17T07:40:22.390Z,75.58203125
2022-09-17T07:41:17.849Z,75.4921875
2022-09-17T07:42:21.077Z,75.10839844
2022-09-17T07:43:14.481Z,74.87207031
2022-09-17T07:44:18.518Z,74.44726563
2022-09-17T07:45:12.773Z,74.35644531
2022-09-17T07:46:15.475Z,74.00878906
2022-09-17T07:47:09.892Z,74.3046875
2022-09-17T07:48:12.586Z,74.29492188
2022-09-17T07:49:06.351Z,74.11914063
2022-09-17T07:50:43.929Z,73.15527344
2022-09-17T07:51:24.007Z,73.140625
2022-09-17T07:52:21.989Z,73.05761719
2022-09-17T07:53:19.332Z,73.15039063
2022-09-17T07:55:14.671Z,73.26367188
2022-09-17T07:56:13.975Z,73.69238281
2022-09-17T07:57:12.431Z,73.51660156
2022-09-17T07:58:08.053Z,73.24804688
2022-09-17T07:59:05.966Z,72.77050781
2022-09-17T08:00:09.388Z,72.64257813
2022-09-17T08:01:02.717Z,72.18457031
2022-09-17T08:02:03.722Z,72.5546875
2022-09-17T08:02:59.812Z,72.05566406
2022-09-17T08:04:00.713Z,72.15234375
2022-09-17T08:04:57.012Z,72.07324219
2022-09-17T08:05:57.935Z,71.78710938
2022-09-17T08:06:54.580Z,71.10546875
2022-09-17T08:07:56.196Z,71.19433594
2022-09-17T08:09:57.476Z,71.09082031
2022-09-17T08:10:52.587Z,69.97167969
2022-09-17T08:11:56.614Z,68.88378906
2022-09-17T08:12:52.136Z,69.00976563
2022-09-17T08:14:50.531Z,68.02929688
2022-09-17T08:15:55.346Z,69.03710938
2022-09-17T08:16:50.158Z,67.85351563
2022-09-17T08:17:52.531Z,68.06738281
2022-09-17T08:19:55.306Z,67.75976563
2022-09-17T08:20:50.546Z,67.82324219
2022-09-17T08:21:53.333Z,66.48925781
2022-09-17T08:22:52.646Z,66.62207031
2022-09-17T08:23:54.119Z,67.27832031
2022-09-17T08:24:52.205Z,65.61035156
2022-09-17T08:25:57.509Z,66.1640625
2022-09-17T08:26:58.138Z,66.67285156
2022-09-17T08:27:54.167Z,65.13769531
2022-09-17T08:29:35.223Z,65.03613281
2022-09-17T08:30:14.112Z,64.65234375
2022-09-17T08:31:13.448Z,64.33007813
2022-09-17T08:32:15.033Z,64.64355469
2022-09-17T08:33:11.744Z,64.63574219
2022-09-17T08:35:10.224Z,64.54101563
2022-09-17T08:36:11.888Z,64.32226563
2022-09-17T08:37:09.474Z,63.90527344
2022-09-17T08:38:13.195Z,64.13085938
2022-09-17T08:39:07.408Z,63.72753906
2022-09-17T08:40:09.076Z,62.93847656
2022-09-17T08:41:05.330Z,61.95019531
2022-09-17T08:42:04.695Z,62.87695313
2022-09-17T08:43:02.404Z,62.00292969
2022-09-17T08:43:57.708Z,62.79296875
2022-09-17T08:45:00.789Z,62.82324219
2022-09-17T08:45:56.233Z,63.21289063
2022-09-17T08:46:58.560Z,62.9609375
2022-09-17T08:47:50.902Z,63.06835938
2022-09-17T08:49:46.981Z,62.35351563
2022-09-17T08:50:49.317Z,63.33691406
2022-09-17T08:51:42.734Z,63.1328125
2022-09-17T08:52:41.125Z,62.91113281
2022-09-17T08:54:36.013Z,63.47753906
2022-09-17T08:55:39.392Z,63.83300781
2022-09-17T08:56:33.640Z,63.88183594
2022-09-17T08:57:37.066Z,63.2890625
2022-09-17T08:59:32.577Z,62.74023438
2022-09-17T09:00:29.209Z,62.43359375
2022-09-17T09:01:30.982Z,61.75878906
2022-09-17T09:02:27.602Z,61.55957031
2022-09-17T09:03:29.898Z,62.06054688
2022-09-17T09:04:24.106Z,62.1640625
2022-09-17T09:05:27.752Z,61.47363281
2022-09-17T09:07:06.653Z,60.77050781
2022-09-17T09:07:46.320Z,59.20214844
2022-09-17T09:08:44.693Z,59.79394531
2022-09-17T09:09:44.525Z,59.38085938
2022-09-17T09:10:40.545Z,59.76171875
2022-09-17T09:11:42.143Z,60.29199219
2022-09-17T09:12:38.709Z,60.1484375
2022-09-17T09:14:37.005Z,59.63769531
2022-09-17T09:15:38.547Z,59.26757813
2022-09-17T09:16:35.614Z,59.35742188
2022-09-17T09:17:36.978Z,59.23925781
2022-09-17T09:18:33.513Z,59.5703125
2022-09-17T09:19:36.776Z,59.49023438
2022-09-17T09:20:32.201Z,59.91210938
2022-09-17T09:21:32.403Z,58.8359375
2022-09-17T09:22:29.041Z,58.65625
2022-09-17T09:23:33.394Z,57.81347656
2022-09-17T09:25:32.318Z,58.19433594
2022-09-17T09:26:25.662Z,57.74511719
2022-09-17T09:27:28.375Z,58.0078125
2022-09-17T09:28:22.651Z,56.68847656
2022-09-17T09:29:23.180Z,54.75488281
2022-09-17T09:30:20.399Z,55.83007813
2022-09-17T09:31:22.228Z,56.96777344
2022-09-17T09:32:18.615Z,56.46875
2022-09-17T09:33:16.270Z,56.08984375
2022-09-17T09:35:13.320Z,56.4140625
2022-09-17T09:36:17.847Z,54.70117188
2022-09-17T09:37:12.044Z,55.52734375
2022-09-17T09:38:15.836Z,56.37011719
2022-09-17T09:39:08.383Z,56.31152344
2022-09-17T09:40:08.718Z,56.36523438
2022-09-17T09:41:04.855Z,56.43945313
2022-09-17T09:42:03.121Z,56.08984375
2022-09-17T09:43:01.574Z,55.88183594
2022-09-17T09:45:38.671Z,56.4140625
2022-09-17T09:48:30.273Z,55.09667969
2022-09-17T09:49:09.334Z,55.39746094
2022-09-17T09:50:06.938Z,55.05371094
2022-09-17T09:51:07.355Z,54.20117188
2022-09-17T09:52:02.256Z,55.32421875
2022-09-17T09:53:02.090Z,56.05371094
2022-09-17T09:54:56.660Z,57.42089844
2022-09-17T09:55:50.966Z,55.91894531
2022-09-17T09:56:49.897Z,56.02734375
2022-09-17T09:57:44.222Z,55.75683594
2022-09-17T09:59:39.202Z,56.23144531
2022-09-17T10:00:32.971Z,55.27246094
2022-09-17T10:01:29.044Z,55.82421875
2022-09-17T10:02:28.397Z,56.33886719
2022-09-17T10:03:21.984Z,57.17382813
2022-09-17T10:04:17.295Z,57.01367188
2022-09-17T10:05:15.424Z,58.05078125
2022-09-17T10:06:08.676Z,59.89941406
2022-09-17T10:07:05.971Z,60.69042969
2022-09-17T10:08:05.701Z,61.25390625
2022-09-17T10:09:57.496Z,61.62695313
2022-09-17T10:10:48.425Z,61.59765625
2022-09-17T10:11:49.160Z,62.00585938
2022-09-17T10:12:40.234Z,62.20507813
2022-09-17T10:14:36.054Z,62.68261719
2022-09-17T10:15:29.591Z,63.41601563
2022-09-17T10:16:30.118Z,61.09570313
2022-09-17T10:17:21.601Z,61.70410156
2022-09-17T10:18:17.339Z,63.23046875
2022-09-17T10:19:16.119Z,62.91210938
2022-09-17T10:20:46.049Z,63.31152344
2022-09-17T10:21:26.455Z,62.74804688
2022-09-17T10:22:27.067Z,62.8125
2022-09-17T10:23:22.891Z,63.58398438
2022-09-17T10:25:21.794Z,62.56054688
2022-09-17T10:26:17.183Z,62.77734375
2022-09-17T10:27:17.620Z,61.07910156
2022-09-17T10:28:13.869Z,62.765625
2022-09-17T10:30:09.800Z,62.00976563
2022-09-17T10:31:10.462Z,62.23925781
2022-09-17T10:32:05.768Z,64.29785156
2022-09-17T10:33:05.790Z,62.41992188
2022-09-17T10:35:02.169Z,64.43359375
2022-09-17T10:35:57.513Z,64.76757813
2022-09-17T10:36:57.763Z,64.73632813
2022-09-17T10:37:53.388Z,63.19335938
2022-09-17T10:39:49.430Z,61.51367188
2022-09-17T10:40:49.282Z,61.38867188
2022-09-17T10:41:44.442Z,61.88867188
2022-09-17T10:42:43.972Z,61.58886719
2022-09-17T10:43:40.991Z,62.359375
2022-09-17T10:44:38.885Z,61.65136719
2022-09-17T10:45:33.704Z,64.12695313
2022-09-17T10:46:36.004Z,63.08789063
2022-09-17T10:47:28.713Z,63.38183594
2022-09-17T10:48:30.544Z,63.0234375
2022-09-17T10:50:26.731Z,63.64746094
2022-09-17T10:51:20.044Z,63.58007813
2022-09-17T10:52:22.733Z,63.94238281
2022-09-17T10:53:18.248Z,63.57714844
2022-09-17T10:55:49.951Z,64.45019531
2022-09-17T10:56:29.441Z,63.97558594
2022-09-17T10:57:26.869Z,63.33789063
2022-09-17T10:58:26.274Z,62.28417969
2022-09-17T11:00:21.284Z,62.70507813
2022-09-17T11:01:16.611Z,60.83300781
2022-09-17T11:02:15.506Z,60.3125
2022-09-17T11:03:13.084Z,61.46191406
2022-09-17T11:04:20.410Z,62.95898438
2022-09-17T11:05:15.210Z,63.16796875
2022-09-17T11:06:15.582Z,62.72949219
2022-09-17T11:07:19.877Z,62.0625
2022-09-17T11:08:23.206Z,63.54394531
2022-09-17T11:10:23.326Z,63.21972656
2022-09-17T11:11:14.944Z,64.33886719
2022-09-17T11:12:14.230Z,67.20410156
2022-09-17T11:13:09.470Z,67.09082031
2022-09-17T11:15:02.817Z,67.10742188
2022-09-17T11:16:05.691Z,66.42089844
2022-09-17T11:17:00.125Z,66.84472656
2022-09-17T11:17:59.599Z,66.80566406
2022-09-17T11:18:58.271Z,67.25488281
2022-09-17T11:19:53.598Z,67.37695313
2022-09-17T11:20:51.694Z,67.5546875
2022-09-17T11:21:46.674Z,69.77734375
2022-09-17T11:22:49.738Z,70.22558594
2022-09-17T11:24:39.783Z,69.86230469
2022-09-17T11:25:36.224Z,69.88378906
2022-09-17T11:26:34.730Z,70.97460938
2022-09-17T11:27:32.003Z,70.56738281
2022-09-17T11:28:28.297Z,70.28417969
2022-09-17T11:29:24.850Z,70.94726563
2022-09-17T11:30:21.157Z,71.71777344
2022-09-17T11:31:21.717Z,72.23535156
2022-09-17T11:31:24.409Z,72.23535156
2022-09-17T11:32:14.269Z,72.06640625
2022-09-17T11:33:10.815Z,71.265625
2022-09-17T11:35:06.738Z,72.55957031
2022-09-17T11:36:39.291Z,74.06445313
2022-09-17T11:37:19.626Z,72.55664063
2022-09-17T11:38:19.880Z,72.390625
2022-09-17T11:39:17.805Z,73.6015625
2022-09-17T11:40:13.219Z,73.86132813
2022-09-17T11:41:14.885Z,72.95410156
2022-09-17T11:42:10.805Z,73.21875
2022-09-17T11:43:10.772Z,72.75195313
2022-09-17T11:45:03.588Z,73.4140625
2022-09-17T11:46:03.590Z,74.06445313
2022-09-17T11:46:59.104Z,74.83300781
2022-09-17T11:47:56.397Z,74.45117188
2022-09-17T11:48:56.018Z,74.48632813
2022-09-17T11:49:51.298Z,74.6328125
2022-09-17T11:50:48.667Z,74.734375
2022-09-17T11:51:48.606Z,74.85839844
2022-09-17T11:52:43.788Z,75.09375
2022-09-17T11:53:41.164Z,75.71386719
2022-09-17T11:54:41.357Z,75.50585938
2022-09-17T11:55:36.479Z,75.40917969
2022-09-17T11:56:34.344Z,75.22167969
2022-09-17T11:57:34.096Z,75.23144531
2022-09-17T11:58:29.369Z,74.95605469
2022-09-17T11:59:26.844Z,75.3203125
2022-09-17T12:00:26.815Z,74.95117188
2022-09-17T12:01:22.004Z,74.60253906
2022-09-17T12:02:19.903Z,74.40332031
2022-09-17T12:03:18.971Z,73.80664063
2022-09-17T12:05:12.851Z,74.05957031
2022-09-17T12:06:57.586Z,73.64746094
2022-09-17T12:07:37.484Z,74.09960938
2022-09-17T12:09:35.695Z,74.79785156
2022-09-17T12:10:31.434Z,74.86035156
2022-09-17T12:11:32.301Z,73.68261719
2022-09-17T12:12:48.430Z,74.78222656
2022-09-17T12:12:49.176Z,74.78222656